Time;durP1;ratioP1;P1;durP2;ratioP2;P2;SDS_P1;SDS_P2;PMS_P1;PMS_P2;Temp;Humidity;BMP_temperature;BMP_pressure;BME280_temperature;BME280_humidity;BME280_pressure;Samples;Min_cycle;Max_cycle;Signal;HPM_P1;HPM_P2
2022/01/27 00:03:51;;;;;;;100.53;57.80;;;5.30;94.20;;;;;;5114596;28;20034;-75
2022/01/27 00:06:54;;;;;;;99.10;57.67;;;5.50;94.50;;;;;;5114352;28;20066;-75
2022/01/27 00:13:30;;;;;;;99.00;58.08;;;5.70;93.80;;;;;;5113379;28;20042;-75
2022/01/27 00:16:40;;;;;;;117.10;65.75;;;5.70;93.60;;;;;;5114307;28;20042;-75
2022/01/27 00:19:44;;;;;;;106.28;64.85;;;5.80;93.30;;;;;;5113507;28;20121;-75
2022/01/27 00:22:48;;;;;;;102.88;60.80;;;5.70;92.90;;;;;;5113919;28;20043;-75
2022/01/27 00:25:51;;;;;;;106.22;64.50;;;5.60;93.40;;;;;;5114229;28;20585;-75
2022/01/27 00:28:55;;;;;;;107.68;64.55;;;5.50;93.80;;;;;;5113583;28;20091;-75
2022/01/27 00:31:59;;;;;;;102.43;62.35;;;5.40;93.70;;;;;;5113664;28;20042;-75
2022/01/27 00:35:05;;;;;;;101.72;58.58;;;5.30;94.00;;;;;;5113640;28;20050;-75
2022/01/27 00:38:09;;;;;;;95.10;57.47;;;5.20;94.40;;;;;;5113525;28;20058;-75
2022/01/27 00:41:14;;;;;;;95.60;56.78;;;5.30;94.80;;;;;;5113620;28;20038;-75
2022/01/27 00:44:18;;;;;;;99.53;58.63;;;5.30;94.90;;;;;;5112377;28;20039;-75
2022/01/27 00:47:22;;;;;;;105.13;60.47;;;5.50;95.00;;;;;;5113473;28;20050;-75
2022/01/27 00:50:26;;;;;;;94.50;52.97;;;5.50;94.40;;;;;;5113752;28;20050;-75
2022/01/27 00:53:41;;;;;;;94.13;54.97;;;5.50;94.40;;;;;;5113095;28;20509;-75
2022/01/27 00:56:55;;;;;;;99.28;61.20;;;5.50;94.60;;;;;;5113539;28;20047;-75
2022/01/27 01:00:03;;;;;;;111.00;62.78;;;5.60;94.10;;;;;;5113149;28;20038;-75
2022/01/27 01:03:22;;;;;;;102.68;61.38;;;5.50;93.50;;;;;;5113099;28;20042;-75
2022/01/27 01:06:48;;;;;;;100.00;60.17;;;5.40;93.60;;;;;;5112382;28;20046;-75
2022/01/27 01:33:13;;;;;;;94.93;58.67;;;5.00;95.20;;;;;;5112819;28;20055;-75
2022/01/27 01:36:34;;;;;;;106.57;62.25;;;5.00;95.20;;;;;;5112536;28;20046;-75
2022/01/27 01:39:38;;;;;;;106.97;64.97;;;5.10;95.10;;;;;;5112401;28;20046;-74
2022/01/27 01:42:43;;;;;;;105.75;63.88;;;5.20;94.80;;;;;;5112420;28;20047;-75
2022/01/27 01:45:48;;;;;;;100.85;61.33;;;5.10;94.10;;;;;;5112175;28;20043;-74
2022/01/27 01:48:52;;;;;;;102.50;64.07;;;5.00;94.30;;;;;;5112216;28;20067;-75
2022/01/27 01:51:59;;;;;;;107.28;64.05;;;5.00;94.50;;;;;;5112364;28;20047;-75
2022/01/27 01:55:05;;;;;;;106.45;63.90;;;4.90;94.40;;;;;;5112212;28;20383;-75
2022/01/27 01:58:09;;;;;;;95.68;60.92;;;4.90;94.60;;;;;;5111431;28;20046;-75
2022/01/27 02:01:13;;;;;;;102.82;64.05;;;5.00;94.30;;;;;;5112189;28;20038;-75
2022/01/27 02:04:18;;;;;;;105.43;61.70;;;4.90;94.20;;;;;;5112046;28;20047;-75
2022/01/27 02:07:34;;;;;;;97.97;62.22;;;5.00;94.10;;;;;;5112308;28;20050;-75
2022/01/27 02:20:31;;;;;;;97.57;61.17;;;4.70;94.60;;;;;;5112158;28;20058;-74
2022/01/27 02:23:35;;;;;;;109.40;65.70;;;4.70;94.90;;;;;;5112132;28;20203;-75
2022/01/27 02:26:41;;;;;;;103.25;62.47;;;4.70;95.00;;;;;;5111428;28;20047;-75
2022/01/27 02:29:46;;;;;;;102.47;62.03;;;4.70;95.20;;;;;;5110620;28;20059;-75
2022/01/27 02:32:52;;;;;;;101.97;61.40;;;4.80;95.30;;;;;;5111321;28;20046;-75
2022/01/27 02:35:56;;;;;;;107.07;65.28;;;4.80;95.10;;;;;;5111596;28;20046;-75
2022/01/27 02:39:04;;;;;;;106.70;63.55;;;4.80;94.70;;;;;;5111541;28;20154;-75
2022/01/27 02:42:24;;;;;;;115.50;68.72;;;4.70;94.40;;;;;;5111256;28;20042;-75
2022/01/27 02:45:41;;;;;;;109.20;66.57;;;4.80;94.50;;;;;;5111397;28;20572;-75
2022/01/27 02:48:45;;;;;;;107.30;66.32;;;4.70;94.20;;;;;;5110572;28;20047;-75
2022/01/27 02:51:49;;;;;;;106.20;67.28;;;4.60;93.80;;;;;;5111319;28;20046;-75
2022/01/27 02:54:53;;;;;;;113.50;71.60;;;4.50;93.80;;;;;;5111183;28;20046;-75
2022/01/27 02:57:58;;;;;;;118.15;74.18;;;4.30;93.80;;;;;;5111493;28;20043;-75
2022/01/27 03:01:04;;;;;;;119.90;72.82;;;4.20;94.80;;;;;;5110896;28;20047;-75
2022/01/27 03:04:08;;;;;;;107.90;68.15;;;4.20;95.50;;;;;;5111150;28;20035;-75
2022/01/27 03:07:14;;;;;;;119.75;72.88;;;4.30;95.40;;;;;;5111376;28;20042;-75
2022/01/27 03:10:19;;;;;;;114.05;70.13;;;4.40;94.70;;;;;;5114727;28;20055;-75
2022/01/27 03:13:23;;;;;;;118.43;70.75;;;4.30;94.40;;;;;;5115238;28;20038;-75
2022/01/27 03:16:27;;;;;;;112.15;68.28;;;4.20;94.50;;;;;;5115597;28;20500;-75
2022/01/27 03:19:32;;;;;;;102.75;61.47;;;4.10;94.60;;;;;;5115619;28;20062;-75
2022/01/27 03:22:36;;;;;;;103.88;60.72;;;4.10;94.90;;;;;;5115345;28;20047;-75
2022/01/27 03:25:40;;;;;;;108.80;63.92;;;4.00;95.30;;;;;;5115018;28;20042;-75
2022/01/27 03:28:46;;;;;;;105.50;63.70;;;4.10;95.30;;;;;;5114747;28;20043;-75
2022/01/27 03:31:50;;;;;;;103.65;61.90;;;4.00;95.00;;;;;;5114851;28;20054;-75
2022/01/27 03:34:54;;;;;;;100.63;57.15;;;3.90;94.70;;;;;;5114081;28;20043;-75
2022/01/27 03:37:58;;;;;;;96.97;56.85;;;3.80;95.20;;;;;;5115128;28;20521;-75
2022/01/27 03:41:07;;;;;;;96.68;58.00;;;3.90;96.00;;;;;;5114116;28;20427;-75
2022/01/27 03:44:11;;;;;;;106.20;59.40;;;3.90;95.60;;;;;;5115001;28;20054;-75
2022/01/27 03:47:15;;;;;;;105.70;61.08;;;5.30;96.10;;;;;;5114546;28;20047;-75
2022/01/27 03:50:19;;;;;;;100.15;56.38;;;4.10;95.30;;;;;;5115315;28;20059;-74
2022/01/27 03:53:23;;;;;;;99.00;59.13;;;4.10;95.10;;;;;;5115258;28;20151;-74
2022/01/27 03:56:27;;;;;;;99.82;56.30;;;4.10;95.20;;;;;;5114987;28;20051;-74
2022/01/27 03:59:31;;;;;;;89.03;56.33;;;4.00;95.00;;;;;;5115113;28;20046;-74
2022/01/27 04:02:38;;;;;;;100.85;60.25;;;3.90;95.40;;;;;;5114742;28;20051;-74
2022/01/27 04:05:49;;;;;;;99.30;57.55;;;4.00;95.60;;;;;;5114909;28;20063;-74
2022/01/27 04:08:53;;;;;;;97.32;56.10;;;4.10;95.50;;;;;;5115263;28;20055;-74
2022/01/27 04:11:57;;;;;;;110.60;62.50;;;4.00;95.10;;;;;;5114664;28;20505;-74
2022/01/27 04:15:01;;;;;;;95.95;56.80;;;4.00;94.70;;;;;;5115183;28;20149;-74
2022/01/27 04:18:05;;;;;;;94.55;58.95;;;4.00;94.80;;;;;;5114658;28;20518;-74
2022/01/27 04:21:10;;;;;;;105.47;60.35;;;3.80;94.80;;;;;;5114052;28;20058;-75
2022/01/27 04:24:16;;;;;;;96.53;53.42;;;3.70;95.30;;;;;;5114205;28;20498;-74
2022/01/27 04:27:23;;;;;;;87.78;50.88;;;3.50;95.80;;;;;;5114551;28;20046;-74
2022/01/27 04:30:27;;;;;;;79.47;46.90;;;3.70;96.60;;;;;;5114721;28;20059;-74
2022/01/27 04:33:34;;;;;;;75.82;45.75;;;3.80;97.20;;;;;;5114408;28;20046;-74
2022/01/27 04:36:39;;;;;;;79.30;47.53;;;3.90;97.40;;;;;;5113770;28;20042;-74
2022/01/27 04:39:55;;;;;;;81.25;48.05;;;4.10;97.10;;;;;;5114761;28;20038;-75
2022/01/27 04:43:08;;;;;;;88.60;50.38;;;4.20;97.00;;;;;;5113307;28;20043;-74
2022/01/27 04:49:23;;;;;;;85.75;53.22;;;4.30;96.60;;;;;;5113879;28;20062;-74
2022/01/27 04:52:30;;;;;;;86.03;51.95;;;4.30;96.60;;;;;;5113761;28;20047;-74
2022/01/27 04:55:34;;;;;;;89.80;52.92;;;4.40;96.60;;;;;;5113799;28;20050;-75
2022/01/27 04:58:38;;;;;;;89.32;50.85;;;4.40;96.50;;;;;;5112588;28;20046;-74
2022/01/27 05:01:51;;;;;;;83.25;50.70;;;4.40;96.50;;;;;;5113298;28;20651;-74
2022/01/27 05:04:55;;;;;;;90.13;49.42;;;4.50;96.40;;;;;;5113486;28;20394;-75
2022/01/27 05:08:01;;;;;;;79.82;50.13;;;4.50;96.20;;;;;;5113157;28;20042;-75
2022/01/27 05:11:17;;;;;;;78.82;48.08;;;4.40;96.20;;;;;;5113150;28;20054;-74
2022/01/27 05:14:24;;;;;;;83.57;51.05;;;4.30;96.40;;;;;;5113235;28;20058;-74
2022/01/27 05:17:28;;;;;;;87.63;48.17;;;4.20;96.40;;;;;;5112797;28;20411;-75
2022/01/27 05:20:32;;;;;;;72.22;45.35;;;4.20;96.10;;;;;;5112867;28;20042;-75
2022/01/27 05:23:36;;;;;;;78.40;46.97;;;4.20;95.40;;;;;;5112850;28;20037;-74
2022/01/27 05:26:40;;;;;;;71.68;46.00;;;3.90;95.20;;;;;;5112781;28;20043;-75
2022/01/27 05:29:44;;;;;;;80.60;47.70;;;3.80;95.60;;;;;;5112669;28;20051;-75
2022/01/27 05:32:48;;;;;;;76.25;45.90;;;3.80;95.50;;;;;;5111656;28;20643;-75
2022/01/27 05:35:52;;;;;;;90.82;46.53;;;3.80;95.70;;;;;;5100142;28;20046;-74
2022/01/27 05:38:56;;;;;;;84.50;45.58;;;3.90;95.30;;;;;;5112822;28;20038;-75
2022/01/27 05:42:00;;;;;;;76.30;45.38;;;3.70;94.80;;;;;;5112553;28;20433;-75
2022/01/27 05:45:04;;;;;;;108.57;69.22;;;3.60;95.20;;;;;;5112914;28;20051;-74
2022/01/27 05:48:08;;;;;;;77.25;47.25;;;3.60;95.40;;;;;;5111254;28;20415;-75
2022/01/27 05:51:13;;;;;;;81.57;47.97;;;3.50;95.70;;;;;;5112496;28;20153;-75
2022/01/27 05:54:17;;;;;;;89.88;49.85;;;3.40;96.10;;;;;;5112395;28;20110;-75
2022/01/27 05:57:21;;;;;;;83.57;48.38;;;3.50;96.40;;;;;;5112066;28;20050;-75
2022/01/27 06:00:27;;;;;;;83.65;49.58;;;3.50;96.40;;;;;;5111959;28;20034;-75
2022/01/27 06:03:31;;;;;;;80.63;47.33;;;3.60;96.60;;;;;;5111923;28;20055;-74
2022/01/27 06:06:35;;;;;;;93.93;47.58;;;3.70;96.80;;;;;;5111998;28;20379;-74
2022/01/27 06:09:39;;;;;;;91.05;48.15;;;3.70;96.90;;;;;;5111829;28;20050;-74
2022/01/27 06:12:51;;;;;;;92.22;48.92;;;3.70;96.70;;;;;;5112132;28;20047;-74
2022/01/27 06:15:55;;;;;;;86.53;46.15;;;3.80;96.80;;;;;;5111258;28;20498;-75
2022/01/27 06:18:59;;;;;;;91.88;47.72;;;3.90;97.00;;;;;;5112161;28;20489;-74
2022/01/27 06:22:11;;;;;;;82.72;45.78;;;3.90;96.60;;;;;;5110886;28;20208;-74
2022/01/27 06:25:15;;;;;;;;;;;3.90;96.30;;;;;;5112336;28;20042;-75
2022/01/27 06:28:19;;;;;;;86.15;45.25;;;4.00;96.10;;;;;;5110895;28;19914;-74
2022/01/27 06:31:24;;;;;;;84.43;44.42;;;4.00;95.60;;;;;;5111524;28;20050;-75
2022/01/27 06:34:28;;;;;;;88.65;45.13;;;3.90;95.40;;;;;;5111472;28;20035;-75
2022/01/27 06:37:32;;;;;;;75.68;42.75;;;3.80;95.60;;;;;;5111477;28;20043;-75
2022/01/27 06:40:36;;;;;;;83.55;43.10;;;3.80;95.90;;;;;;5111386;28;20038;-75
2022/01/27 06:43:43;;;;;;;79.22;43.33;;;3.80;96.00;;;;;;5111411;28;20050;-74
2022/01/27 06:46:47;;;;;;;79.47;42.00;;;3.70;96.30;;;;;;5111088;28;20502;-74
2022/01/27 06:49:52;;;;;;;82.85;44.40;;;3.80;96.50;;;;;;5111312;28;20121;-73
2022/01/27 06:52:56;;;;;;;87.63;42.40;;;3.70;96.50;;;;;;5110712;28;20046;-73
2022/01/27 06:56:00;;;;;;;83.13;41.58;;;3.80;96.50;;;;;;5111357;28;20062;-74
2022/01/27 06:59:05;;;;;;;88.35;41.40;;;4.00;96.50;;;;;;5110727;28;20105;-76
2022/01/27 07:02:09;;;;;;;74.78;40.25;;;4.10;96.40;;;;;;5111362;28;20047;-82
2022/01/27 07:05:15;;;;;;;75.40;38.53;;;4.20;96.20;;;;;;5111216;28;20050;-72
2022/01/27 07:08:19;;;;;;;75.80;37.15;;;4.40;95.90;;;;;;5111301;28;20447;-82
2022/01/27 07:11:23;;;;;;;76.72;38.83;;;4.40;95.50;;;;;;5111473;28;20067;-79
2022/01/27 07:14:27;;;;;;;81.10;39.13;;;4.40;95.80;;;;;;5111351;28;20034;-82
2022/01/27 07:17:32;;;;;;;72.63;42.10;;;4.40;95.90;;;;;;5111785;28;20068;-84
2022/01/27 07:20:36;;;;;;;66.38;41.67;;;4.60;96.00;;;;;;5112786;28;20034;-83
2022/01/27 07:23:40;;;;;;;73.32;42.88;;;4.70;95.70;;;;;;5100057;28;20070;-85
2022/01/27 07:26:44;;;;;;;71.25;40.53;;;4.80;95.40;;;;;;5110694;28;20395;-78
2022/01/27 07:29:48;;;;;;;78.53;46.20;;;4.90;95.20;;;;;;5110238;28;20047;-79
2022/01/27 07:32:52;;;;;;;87.72;47.92;;;4.90;95.00;;;;;;5111159;28;20502;-80
2022/01/27 07:35:57;;;;;;;97.05;52.38;;;4.90;95.40;;;;;;5110464;28;20051;-77
2022/01/27 07:39:02;;;;;;;118.40;58.28;;;5.00;95.60;;;;;;5110866;28;20055;-82
2022/01/27 07:42:06;;;;;;;108.40;54.58;;;5.00;95.40;;;;;;5110744;28;20046;-74
2022/01/27 07:45:12;;;;;;;96.80;53.55;;;5.20;95.50;;;;;;5110860;28;20489;-72
2022/01/27 07:48:16;;;;;;;122.55;59.38;;;5.40;95.30;;;;;;5110483;28;20387;-73
2022/01/27 07:51:20;;;;;;;123.32;67.32;;;5.50;95.20;;;;;;5110418;28;20043;-75
2022/01/27 07:54:24;;;;;;;121.90;67.68;;;5.60;94.90;;;;;;5110872;28;20109;-77
2022/01/27 07:57:28;;;;;;;126.85;70.82;;;5.80;94.80;;;;;;5114584;28;20395;-76
2022/01/27 08:00:31;;;;;;;135.45;69.22;;;5.80;94.80;;;;;;5114228;28;20054;-75
2022/01/27 08:03:36;;;;;;;129.38;68.97;;;6.00;94.90;;;;;;5114373;28;20505;-76
2022/01/27 08:06:41;;;;;;;125.35;66.97;;;6.10;94.80;;;;;;5114558;28;20509;-76
2022/01/27 08:09:46;;;;;;;116.22;62.55;;;6.20;94.60;;;;;;5114114;28;20065;-72
2022/01/27 08:12:50;;;;;;;100.43;54.28;;;6.30;94.70;;;;;;5114097;28;20047;-77
2022/01/27 08:15:54;;;;;;;97.63;55.95;;;6.30;94.50;;;;;;5114311;28;20050;-70
2022/01/27 08:18:58;;;;;;;100.35;56.03;;;6.40;94.60;;;;;;5114121;28;20059;-71
2022/01/27 08:22:02;;;;;;;107.22;58.17;;;6.60;94.50;;;;;;5114095;28;20046;-70
2022/01/27 08:25:07;;;;;;;97.53;50.65;;;6.70;94.30;;;;;;5114195;28;20046;-74
2022/01/27 08:28:21;;;;;;;81.65;50.97;;;7.00;94.40;;;;;;5113897;28;20047;-77
2022/01/27 08:31:32;;;;;;;94.35;57.55;;;7.10;94.10;;;;;;5112953;28;20054;-77
2022/01/27 08:34:44;;;;;;;93.35;54.55;;;7.30;93.90;;;;;;5113621;28;20039;-76
2022/01/27 08:37:53;;;;;;;86.78;48.42;;;7.40;93.60;;;;;;5114051;28;20050;-74
2022/01/27 08:41:28;;;;;;;82.70;49.58;;;7.60;93.30;;;;;;5112415;28;20105;-77
2022/01/27 08:44:32;;;;;;;90.88;53.22;;;7.80;92.90;;;;;;5113754;28;20097;-84
2022/01/27 08:47:41;;;;;;;85.35;52.00;;;8.10;92.70;;;;;;5113390;28;20054;-77
2022/01/27 08:51:20;;;;;;;96.88;54.83;;;8.20;92.10;;;;;;5112714;28;20054;-73
2022/01/27 08:54:56;;;;;;;76.07;46.88;;;8.20;91.70;;;;;;5112034;28;20522;-77
2022/01/27 08:58:23;;;;;;;62.95;41.03;;;8.30;92.00;;;;;;5112990;28;20411;-73
2022/01/27 09:02:20;;;;;;;75.10;43.38;;;8.40;92.20;;;;;;5113139;28;20050;-74
2022/01/27 09:05:24;;;;;;;75.47;45.03;;;8.70;92.10;;;;;;5113281;28;20509;-72
2022/01/27 09:08:28;;;;;;;65.65;40.47;;;8.90;92.00;;;;;;5113085;28;20050;-75
2022/01/27 09:11:33;;;;;;;62.15;39.30;;;8.90;91.60;;;;;;5112804;28;20051;-78
2022/01/27 09:15:29;;;;;;;70.43;39.60;;;9.00;91.80;;;;;;5112850;28;20047;-76
2022/01/27 09:18:33;;;;;;;62.63;35.88;;;9.10;91.30;;;;;;5112708;28;20667;-75
2022/01/27 09:21:45;;;;;;;44.72;29.42;;;9.00;91.20;;;;;;5111606;28;20418;-75
2022/01/27 09:25:47;;;;;;;45.17;30.20;;;9.00;91.60;;;;;;5111879;28;20047;-74
2022/01/27 09:29:47;;;;;;;60.20;35.65;;;9.20;91.80;;;;;;5112695;28;20059;-78
2022/01/27 09:32:56;;;;;;;56.75;33.67;;;9.30;91.50;;;;;;5112346;28;20043;-73
2022/01/27 09:36:00;;;;;;;58.70;34.20;;;9.40;91.60;;;;;;5112435;28;20050;-74
2022/01/27 09:39:04;;;;;;;52.10;31.52;;;9.50;91.40;;;;;;5100067;28;20050;-73
2022/01/27 09:42:50;;;;;;;57.60;34.70;;;9.70;92.00;;;;;;5111431;28;20047;-76
2022/01/27 09:46:04;;;;;;;56.35;36.10;;;9.90;92.20;;;;;;5112060;28;20038;-71
2022/01/27 09:49:40;;;;;;;59.40;34.83;;;10.40;98.20;;;;;;5112561;28;20473;-76
2022/01/27 09:52:49;;;;;;;56.25;34.40;;;10.60;96.90;;;;;;5112261;28;20387;-80
2022/01/27 09:55:53;;;;;;;46.55;32.92;;;10.70;93.80;;;;;;5111677;28;20403;-78
2022/01/27 09:58:58;;;;;;;60.15;36.47;;;10.80;92.80;;;;;;5112347;28;20047;-77
2022/01/27 10:16:03;;;;;;;50.28;34.63;;;11.50;90.70;;;;;;5018795;28;20037;-73
2022/01/27 10:19:09;;;;;;;49.63;34.50;;;11.60;90.40;;;;;;5028559;28;20052;-73
2022/01/27 10:22:14;;;;;;;49.65;34.88;;;11.70;90.60;;;;;;5028788;28;20052;-76
2022/01/27 10:25:21;;;;;;;56.30;34.30;;;11.80;90.20;;;;;;5023475;28;20042;-76
2022/01/27 10:29:09;;;;;;;48.10;35.60;;;11.90;90.20;;;;;;5111903;28;20047;-76
2022/01/27 10:32:53;;;;;;;62.03;38.20;;;11.90;90.40;;;;;;5111704;28;20494;-75
2022/01/27 10:36:49;;;;;;;59.95;38.92;;;12.00;90.20;;;;;;5111596;28;20399;-75
2022/01/27 10:44:56;;;;;;;65.60;38.00;;;12.20;90.10;;;;;;5051104;28;19916;-74
2022/01/27 10:49:07;;;;;;;54.05;37.22;;;12.30;90.00;;;;;;5063116;28;20071;-75
2022/01/27 10:52:20;;;;;;;56.65;38.17;;;12.40;89.70;;;;;;5070397;28;20067;-75
2022/01/27 11:05:51;;;;;;;56.38;36.47;;;12.70;89.10;;;;;;5070924;28;20043;-75
2022/01/27 11:28:35;;;;;;;40.42;27.80;;;13.10;90.80;;;;;;5056597;28;20051;-84
2022/01/27 11:32:28;;;;;;;45.33;30.02;;;13.10;90.80;;;;;;5074679;28;20048;-88
2022/01/27 11:36:07;;;;;;;36.83;26.92;;;13.20;90.70;;;;;;5077645;28;20051;-87
2022/01/27 11:39:12;;;;;;;35.75;25.77;;;13.10;90.70;;;;;;5073757;28;20047;-74
2022/01/27 11:42:37;;;;;;;33.58;25.10;;;13.10;90.70;;;;;;5073273;28;20404;-78
2022/01/27 11:45:45;;;;;;;40.83;25.73;;;13.10;90.70;;;;;;5073938;28;20404;-82
2022/01/27 11:49:46;;;;;;;36.65;26.50;;;13.10;90.60;;;;;;5074337;28;20205;-84
2022/01/27 11:58:29;;;;;;;44.58;28.83;;;13.10;90.60;;;;;;5077334;28;20055;-84
2022/01/27 12:01:37;;;;;;;34.38;25.25;;;13.10;90.40;;;;;;5073800;28;20503;-84
2022/01/27 12:04:41;;;;;;;31.92;23.42;;;13.10;90.30;;;;;;5074160;28;20407;-84
2022/01/27 12:08:17;;;;;;;30.88;22.60;;;13.00;90.10;;;;;;5073665;28;20036;-84
2022/01/27 12:11:44;;;;;;;29.27;21.02;;;13.00;90.00;;;;;;5073353;28;20059;-85
2022/01/27 12:15:00;;;;;;;36.78;25.90;;;13.00;89.90;;;;;;5061341;28;20044;-83
2022/01/27 12:18:38;;;;;;;34.90;25.33;;;13.00;89.70;;;;;;5073059;28;20043;-84
2022/01/27 12:21:51;;;;;;;45.75;31.00;;;13.00;90.00;;;;;;5073393;28;20043;-84
2022/01/27 12:25:05;;;;;;;46.40;31.35;;;13.00;90.50;;;;;;5073034;28;20491;-82
2022/01/27 12:28:09;;;;;;;39.00;27.40;;;13.00;90.90;;;;;;5072989;28;20043;-82
2022/01/27 12:31:14;;;;;;;39.35;30.40;;;13.00;90.50;;;;;;5073004;28;20051;-82
2022/01/27 12:34:18;;;;;;;53.60;33.35;;;13.00;90.50;;;;;;5072621;28;20047;-86
2022/01/27 12:37:34;;;;;;;46.92;31.85;;;13.00;90.40;;;;;;5072458;28;20048;-86
2022/01/27 12:40:38;;;;;;;44.00;31.45;;;13.00;90.30;;;;;;5085652;28;20039;-88
2022/01/27 12:43:46;;;;;;;44.47;31.80;;;13.00;90.10;;;;;;5072356;28;20055;-88
2022/01/27 12:47:10;;;;;;;44.92;31.63;;;13.00;90.10;;;;;;5081175;28;20046;-90
2022/01/27 12:50:20;;;;;;;53.33;33.60;;;13.00;90.20;;;;;;5113087;28;20055;-89
2022/01/27 12:53:24;;;;;;;41.65;29.65;;;13.10;90.20;;;;;;5112896;28;20042;-91
2022/01/27 12:56:28;;;;;;;46.30;30.45;;;13.00;90.00;;;;;;5113370;28;20049;-85
2022/01/27 12:59:34;;;;;;;39.80;27.00;;;13.00;89.50;;;;;;5112535;28;20043;-82
2022/01/27 13:02:39;;;;;;;41.35;28.58;;;13.00;89.30;;;;;;5113204;28;20038;-81
2022/01/27 13:05:45;;;;;;;40.90;29.08;;;13.00;89.40;;;;;;5113021;28;20038;-82
2022/01/27 13:08:49;;;;;;;40.03;27.10;;;13.00;89.60;;;;;;5112136;28;20391;-85
2022/01/27 13:11:55;;;;;;;34.30;24.55;;;13.00;89.60;;;;;;5112417;28;20059;-87
2022/01/27 13:18:24;;;;;;;37.28;24.85;;;13.00;88.80;;;;;;5112641;28;20050;-85
2022/01/27 13:21:34;;;;;;;31.05;22.45;;;13.10;88.70;;;;;;5112079;28;20046;-76
2022/01/27 13:24:49;;;;;;;30.98;21.35;;;13.00;88.50;;;;;;5112836;28;20042;-72
2022/01/27 13:28:21;;;;;;;28.95;20.42;;;13.00;88.30;;;;;;5112030;28;20054;-76
2022/01/27 13:31:26;;;;;;;28.38;19.92;;;13.00;88.00;;;;;;5111832;28;20038;-76
2022/01/27 13:34:30;;;;;;;28.00;19.63;;;13.00;87.80;;;;;;5113012;28;20046;-76
2022/01/27 13:37:37;;;;;;;27.00;18.10;;;13.00;87.50;;;;;;5112023;28;20391;-80
2022/01/27 13:44:13;;;;;;;26.02;16.77;;;12.90;86.70;;;;;;5112495;28;20076;-79
2022/01/27 13:47:27;;;;;;;21.92;15.90;;;12.90;86.30;;;;;;5111384;28;20250;-79
2022/01/27 13:50:32;;;;;;;24.17;15.68;;;12.90;86.30;;;;;;5112053;28;20058;-79
2022/01/27 13:53:36;;;;;;;23.77;16.33;;;12.90;85.90;;;;;;5111733;28;20050;-79
2022/01/27 13:56:51;;;;;;;25.52;16.73;;;12.90;85.80;;;;;;5112281;28;20039;-78
2022/01/27 14:00:00;;;;;;;23.10;15.85;;;12.90;85.50;;;;;;5111509;28;20062;-78
2022/01/27 14:03:13;;;;;;;32.90;20.48;;;12.80;85.40;;;;;;5112115;28;20043;-79
2022/01/27 14:06:18;;;;;;;21.83;17.20;;;12.80;85.50;;;;;;5112207;28;20050;-79
2022/01/27 14:09:26;;;;;;;28.58;17.73;;;12.80;85.40;;;;;;5111998;28;20101;-79
2022/01/27 14:12:44;;;;;;;44.20;21.02;;;12.80;85.60;;;;;;5112373;28;20063;-79
2022/01/27 14:15:54;;;;;;;26.88;16.65;;;12.70;85.20;;;;;;5111870;28;20052;-79
2022/01/27 14:19:13;;;;;;;29.02;19.65;;;12.80;85.30;;;;;;5111859;28;20046;-79
2022/01/27 14:22:20;;;;;;;32.40;20.10;;;12.70;85.40;;;;;;5112084;28;20051;-78
2022/01/27 14:25:36;;;;;;;24.95;17.55;;;12.70;85.80;;;;;;5111542;28;20039;-78
2022/01/27 14:28:41;;;;;;;22.67;16.48;;;12.70;86.00;;;;;;5111916;28;20055;-78
2022/01/27 14:31:47;;;;;;;29.88;17.52;;;12.70;86.10;;;;;;5111172;28;20058;-78
2022/01/27 14:34:51;;;;;;;29.17;18.33;;;12.70;86.20;;;;;;5111928;28;20042;-79
2022/01/27 14:37:57;;;;;;;35.05;21.20;;;12.60;86.20;;;;;;5111576;28;20046;-78
2022/01/27 14:41:01;;;;;;;34.53;25.08;;;12.60;86.20;;;;;;5111051;28;20043;-79
2022/01/27 14:44:06;;;;;;;30.30;22.15;;;12.70;86.20;;;;;;5111638;28;20387;-78
2022/01/27 14:47:10;;;;;;;33.30;19.35;;;12.60;86.20;;;;;;5111649;28;20058;-79
2022/01/27 14:50:16;;;;;;;30.67;19.17;;;12.60;85.80;;;;;;5110553;28;20137;-79
2022/01/27 14:53:20;;;;;;;41.05;19.70;;;12.60;85.70;;;;;;5111646;28;20058;-79
2022/01/27 14:56:24;;;;;;;29.98;19.40;;;12.60;86.00;;;;;;5110732;28;20046;-77
2022/01/27 14:59:28;;;;;;;31.98;21.02;;;12.60;86.10;;;;;;5110456;28;20047;-75
2022/01/27 15:02:32;;;;;;;23.58;17.35;;;12.60;86.30;;;;;;5111170;28;20097;-76
2022/01/27 15:05:36;;;;;;;30.52;18.77;;;12.50;86.00;;;;;;5115383;28;20655;-74
2022/01/27 15:08:41;;;;;;;29.85;18.25;;;12.50;86.10;;;;;;5115400;28;20394;-73
2022/01/27 15:11:46;;;;;;;26.55;15.82;;;12.50;86.30;;;;;;5114976;28;20058;-76
2022/01/27 15:21:35;;;;;;;21.52;16.42;;;12.40;85.60;;;;;;5115267;28;20043;-80
2022/01/27 15:24:41;;;;;;;25.92;17.83;;;12.40;86.20;;;;;;5115411;28;20054;-77
2022/01/27 15:27:46;;;;;;;35.90;23.92;;;12.40;86.60;;;;;;5115373;28;20059;-72
2022/01/27 15:30:51;;;;;;;37.50;23.23;;;12.40;87.50;;;;;;5114762;28;20050;-75
2022/01/27 15:33:55;;;;;;;32.60;22.50;;;12.30;88.00;;;;;;5114924;28;20394;-76
2022/01/27 15:36:59;;;;;;;32.83;21.85;;;12.30;88.40;;;;;;5114816;28;20042;-74
2022/01/27 15:40:04;;;;;;;40.08;23.13;;;12.30;88.50;;;;;;5114635;28;20035;-72
2022/01/27 15:43:10;;;;;;;33.67;22.38;;;12.30;88.50;;;;;;5114915;28;20042;-75
2022/01/27 15:46:15;;;;;;;35.42;24.85;;;12.20;88.60;;;;;;5114101;28;20054;-79
2022/01/27 15:49:19;;;;;;;49.33;28.65;;;12.20;88.70;;;;;;5114674;28;20043;-73
2022/01/27 15:52:27;;;;;;;42.08;27.90;;;12.20;88.90;;;;;;5114916;28;20054;-76
2022/01/27 15:55:33;;;;;;;50.88;30.52;;;12.20;89.00;;;;;;5114564;28;20050;-73
2022/01/27 15:58:36;;;;;;;58.88;33.47;;;12.10;88.90;;;;;;5113880;28;20051;-79
2022/01/27 16:01:40;;;;;;;52.08;32.13;;;12.00;89.20;;;;;;5113812;28;20035;-77
2022/01/27 16:04:44;;;;;;;54.92;30.75;;;12.00;89.40;;;;;;5113385;28;20066;-76
2022/01/27 16:07:51;;;;;;;61.85;30.80;;;12.00;89.60;;;;;;5113614;28;20051;-72
2022/01/27 16:10:55;;;;;;;57.35;29.98;;;11.80;89.70;;;;;;5114060;28;20055;-73
2022/01/27 16:13:59;;;;;;;53.55;32.47;;;11.80;90.10;;;;;;5114310;28;20046;-73
2022/01/27 16:17:03;;;;;;;53.13;32.33;;;11.70;90.20;;;;;;5113066;28;20050;-74
2022/01/27 16:20:12;;;;;;;49.33;31.13;;;11.60;90.40;;;;;;5113085;28;20038;-73
2022/01/27 16:23:16;;;;;;;64.10;40.00;;;11.50;90.60;;;;;;5114042;28;20067;-74
2022/01/27 16:26:20;;;;;;;57.53;37.38;;;11.50;90.60;;;;;;5114207;28;20043;-72
2022/01/27 16:29:24;;;;;;;57.40;38.03;;;11.50;90.60;;;;;;5113656;28;20410;-73
2022/01/27 16:32:28;;;;;;;66.65;41.78;;;11.50;90.60;;;;;;5114025;28;20074;-83
2022/01/27 16:35:33;;;;;;;73.55;44.88;;;11.50;90.70;;;;;;5112991;28;20401;-70
2022/01/27 16:38:36;;;;;;;82.07;46.58;;;11.40;90.70;;;;;;5112370;28;20050;-75
2022/01/27 16:41:40;;;;;;;77.10;43.92;;;11.30;90.80;;;;;;5113762;28;20046;-72
2022/01/27 16:44:44;;;;;;;78.97;40.35;;;11.30;90.80;;;;;;5112596;28;20051;-72
2022/01/27 16:47:48;;;;;;;106.93;43.05;;;11.20;90.90;;;;;;5113344;28;20046;-72
2022/01/27 16:50:52;;;;;;;83.82;43.78;;;11.20;91.40;;;;;;5113608;28;20054;-72
2022/01/27 16:53:57;;;;;;;67.60;42.38;;;11.20;91.20;;;;;;5113370;28;20039;-72
2022/01/27 16:57:01;;;;;;;72.78;47.80;;;11.10;91.00;;;;;;5113442;28;20035;-76
2022/01/27 17:00:06;;;;;;;73.72;47.63;;;11.00;91.10;;;;;;5113140;28;20062;-70
2022/01/27 17:03:10;;;;;;;83.00;52.92;;;11.00;91.40;;;;;;5112362;28;20050;-71
2022/01/27 17:06:15;;;;;;;74.10;50.08;;;10.90;91.40;;;;;;5112721;28;20521;-74
2022/01/27 17:09:19;;;;;;;83.03;51.85;;;10.80;91.50;;;;;;5112955;28;20066;-72
2022/01/27 17:12:23;;;;;;;81.07;49.85;;;10.80;91.60;;;;;;5112028;28;20434;-72
2022/01/27 17:15:27;;;;;;;83.43;46.97;;;10.80;91.60;;;;;;5112858;28;20043;-72
2022/01/27 17:18:32;;;;;;;79.63;49.00;;;10.80;91.50;;;;;;5113024;28;20054;-71
2022/01/27 17:21:36;;;;;;;91.45;51.42;;;10.70;91.60;;;;;;5112427;28;20043;-71
2022/01/27 17:24:40;;;;;;;103.32;52.15;;;10.70;91.70;;;;;;5112770;28;20513;-73
2022/01/27 17:27:44;;;;;;;99.72;53.58;;;10.60;91.70;;;;;;5111458;28;20047;-70
2022/01/27 17:30:48;;;;;;;94.90;47.08;;;10.60;91.80;;;;;;5112352;28;20039;-74
2022/01/27 17:33:52;;;;;;;84.57;46.58;;;10.60;91.90;;;;;;5111670;28;20290;-74
2022/01/27 17:36:56;;;;;;;85.45;43.70;;;10.60;91.80;;;;;;5112258;28;20062;-74
2022/01/27 17:40:02;;;;;;;86.88;45.15;;;10.50;91.80;;;;;;5112481;28;20050;-72
2022/01/27 17:43:16;;;;;;;72.57;40.38;;;10.40;92.00;;;;;;5112207;28;20043;-71
2022/01/27 17:46:23;;;;;;;70.70;39.10;;;10.40;91.90;;;;;;5112077;28;20046;-72
2022/01/27 17:49:27;;;;;;;72.53;41.45;;;10.30;91.70;;;;;;5111153;28;20042;-71
2022/01/27 17:52:32;;;;;;;69.90;41.17;;;10.10;92.10;;;;;;5111504;28;20058;-70